Time;durP1;ratioP1;P1;durP2;ratioP2;P2;SDS_P1;SDS_P2;PMS_P1;PMS_P2;Temp;Humidity;BMP_temperature;BMP_pressure;BME280_temperature;BME280_humidity;BME280_pressure;Samples;Min_cycle;Max_cycle;Signal;HPM_P1;HPM_P2
2020/12/23 00:01:31;;;;;;;74.83;31.07;;;6.00;92.50;;;;;;4954517;28;20171;-79
2020/12/23 00:03:57;;;;;;;71.03;32.93;;;6.10;92.40;;;;;;4989740;28;20194;-79
2020/12/23 00:06:33;;;;;;;72.37;32.90;;;6.10;92.30;;;;;;4985486;28;20186;-79
2020/12/23 00:09:00;;;;;;;67.20;31.17;;;6.10;92.20;;;;;;4951977;28;20273;-78
2020/12/23 00:11:25;;;;;;;67.67;30.90;;;6.10;92.30;;;;;;4954831;28;20650;-79
2020/12/23 00:13:51;;;;;;;63.70;28.77;;;6.10;92.10;;;;;;4951812;28;20187;-79
2020/12/23 00:16:17;;;;;;;65.60;29.10;;;6.00;92.20;;;;;;4967517;28;20186;-79
2020/12/23 00:18:42;;;;;;;63.60;29.80;;;6.00;92.20;;;;;;4963426;28;20179;-78
2020/12/23 00:21:08;;;;;;;65.77;30.80;;;6.00;92.30;;;;;;4990384;28;20205;-81
2020/12/23 00:23:35;;;;;;;76.43;31.80;;;6.00;92.40;;;;;;4951571;28;20726;-80
2020/12/23 00:26:01;;;;;;;73.97;32.50;;;6.00;92.40;;;;;;4934019;29;20195;-80
2020/12/23 00:28:26;;;;;;;72.93;31.13;;;6.00;92.50;;;;;;4967898;28;20189;-80
2020/12/23 00:30:52;;;;;;;72.37;30.50;;;6.00;92.60;;;;;;4953626;28;20211;-81
2020/12/23 00:33:18;;;;;;;58.87;28.90;;;5.90;92.50;;;;;;4952047;28;20211;-80
2020/12/23 00:35:44;;;;;;;67.60;31.70;;;5.90;92.70;;;;;;4954968;28;20178;-80
2020/12/23 00:38:09;;;;;;;73.17;31.50;;;5.90;92.80;;;;;;4972130;28;20616;-79
2020/12/23 00:40:35;;;;;;;64.57;29.70;;;5.90;92.80;;;;;;4954073;28;20194;-79
2020/12/23 00:43:01;;;;;;;59.93;29.13;;;5.90;92.70;;;;;;4961057;28;20233;-79
2020/12/23 00:45:27;;;;;;;65.93;30.67;;;6.00;92.60;;;;;;4974872;28;20193;-79
2020/12/23 00:47:52;;;;;;;69.00;29.83;;;6.00;92.50;;;;;;4974263;28;20175;-79
2020/12/23 00:50:18;;;;;;;61.87;28.47;;;6.10;92.40;;;;;;4972650;28;20305;-79
2020/12/23 00:52:44;;;;;;;56.77;28.53;;;6.10;92.20;;;;;;4970151;28;20209;-79
2020/12/23 00:55:12;;;;;;;59.90;27.83;;;6.10;92.20;;;;;;4955169;29;20175;-80
2020/12/23 00:57:38;;;;;;;56.17;28.67;;;6.10;92.10;;;;;;4972105;28;20550;-79
2020/12/23 01:00:05;;;;;;;76.27;29.90;;;6.10;92.10;;;;;;4956784;28;20240;-79
2020/12/23 01:02:31;;;;;;;69.37;28.70;;;6.10;92.10;;;;;;4961821;28;20281;-80
2020/12/23 01:04:56;;;;;;;59.50;26.90;;;6.10;92.10;;;;;;4956660;28;20286;-80
2020/12/23 01:07:22;;;;;;;61.63;27.83;;;6.10;92.00;;;;;;4959936;28;20228;-80
2020/12/23 01:09:47;;;;;;;69.10;30.20;;;6.10;92.00;;;;;;4954861;28;20195;-81
2020/12/23 01:12:13;;;;;;;63.17;29.70;;;6.10;91.90;;;;;;4955287;28;20225;-81
2020/12/23 01:14:39;;;;;;;54.30;26.93;;;6.10;91.90;;;;;;4967729;28;20187;-79
2020/12/23 01:17:05;;;;;;;62.73;28.83;;;6.10;91.90;;;;;;4953851;29;20181;-79
2020/12/23 01:19:30;;;;;;;69.53;30.23;;;6.10;91.90;;;;;;4953799;29;20187;-79
2020/12/23 01:21:56;;;;;;;65.17;29.27;;;6.10;91.90;;;;;;4964192;28;20248;-79
2020/12/23 01:24:22;;;;;;;60.77;29.40;;;6.10;92.00;;;;;;4954642;29;20568;-79
2020/12/23 01:26:50;;;;;;;62.07;28.57;;;6.10;92.00;;;;;;4947468;28;20200;-79
2020/12/23 01:29:16;;;;;;;54.03;28.10;;;6.10;92.00;;;;;;4952285;29;20183;-79
2020/12/23 01:31:42;;;;;;;58.53;28.07;;;6.10;92.10;;;;;;4973878;28;20181;-79
2020/12/23 01:34:08;;;;;;;59.57;28.47;;;6.10;92.10;;;;;;4975649;28;20178;-80
2020/12/23 01:36:34;;;;;;;68.27;29.83;;;6.20;92.10;;;;;;4984617;28;20667;-79
2020/12/23 01:39:00;;;;;;;70.03;29.13;;;6.20;92.00;;;;;;4970630;28;20186;-81
2020/12/23 01:41:26;;;;;;;55.60;28.60;;;6.20;91.90;;;;;;4958916;28;20191;-80
2020/12/23 01:43:57;;;;;;;70.73;31.00;;;6.10;91.90;;;;;;4953959;28;20674;-80
2020/12/23 01:46:35;;;;;;;56.17;29.30;;;6.10;92.00;;;;;;4954810;28;20179;-80
2020/12/23 01:49:06;;;;;;;60.57;28.73;;;6.10;91.90;;;;;;4963383;28;20261;-80
2020/12/23 01:51:32;;;;;;;68.77;31.77;;;6.00;92.10;;;;;;4973839;28;20178;-80
2020/12/23 01:53:58;;;;;;;67.27;29.57;;;6.00;92.30;;;;;;4973979;28;20182;-79
2020/12/23 01:56:24;;;;;;;61.60;28.80;;;6.00;92.30;;;;;;4951804;28;20183;-79
2020/12/23 01:58:50;;;;;;;66.83;29.73;;;6.00;92.40;;;;;;4953400;29;20578;-80
2020/12/23 02:01:22;;;;;;;70.03;29.17;;;6.00;92.50;;;;;;4953308;29;20183;-80
2020/12/23 02:03:49;;;;;;;61.10;29.53;;;6.00;92.40;;;;;;4953648;29;20672;-79
2020/12/23 02:06:21;;;;;;;68.37;30.53;;;6.00;92.40;;;;;;4946747;29;20596;-80
2020/12/23 02:08:49;;;;;;;65.20;28.53;;;6.00;92.40;;;;;;4961489;28;20175;-79
2020/12/23 02:11:16;;;;;;;68.53;28.47;;;6.00;92.40;;;;;;4953325;29;21014;-80
2020/12/23 02:13:44;;;;;;;64.17;28.63;;;6.00;92.50;;;;;;4953037;29;20662;-79
2020/12/23 02:16:11;;;;;;;68.40;29.43;;;6.00;92.60;;;;;;4942793;28;20675;-79
2020/12/23 02:18:37;;;;;;;65.27;31.40;;;6.00;92.60;;;;;;4953142;29;20183;-79
2020/12/23 02:21:03;;;;;;;63.23;29.03;;;6.10;92.70;;;;;;4967708;28;20218;-79
2020/12/23 02:23:30;;;;;;;67.90;29.67;;;6.10;92.70;;;;;;4935791;29;20211;-79
2020/12/23 02:25:56;;;;;;;63.07;30.07;;;6.10;92.70;;;;;;4953632;28;20257;-79
2020/12/23 02:28:22;;;;;;;76.03;31.30;;;6.10;92.80;;;;;;4954375;28;20186;-79
2020/12/23 02:30:56;;;;;;;68.93;29.80;;;6.10;92.80;;;;;;4955068;28;20230;-80
2020/12/23 02:33:22;;;;;;;60.20;28.50;;;6.10;92.80;;;;;;4953353;28;20229;-80
2020/12/23 02:35:47;;;;;;;63.27;30.93;;;6.10;92.80;;;;;;4972255;28;20594;-79
2020/12/23 02:38:13;;;;;;;60.80;29.23;;;6.20;92.80;;;;;;4953184;29;20587;-80
2020/12/23 02:40:39;;;;;;;67.33;30.93;;;6.20;92.80;;;;;;4959150;28;20215;-80
2020/12/23 02:43:04;;;;;;;63.03;30.00;;;6.20;92.70;;;;;;4952816;29;20193;-80
2020/12/23 02:45:30;;;;;;;60.97;30.73;;;6.20;92.70;;;;;;4954544;28;20194;-80
2020/12/23 02:47:56;;;;;;;60.83;30.40;;;6.30;92.60;;;;;;4951297;28;20592;-79
2020/12/23 02:50:21;;;;;;;68.90;33.20;;;6.20;92.40;;;;;;4958685;28;20765;-80
2020/12/23 02:52:47;;;;;;;71.93;33.23;;;6.10;92.60;;;;;;4972058;28;20237;-79
2020/12/23 02:55:13;;;;;;;72.73;32.73;;;6.10;92.70;;;;;;4958557;28;20210;-80
2020/12/23 02:57:38;;;;;;;67.13;30.40;;;6.10;92.80;;;;;;4967134;28;20264;-79
2020/12/23 03:00:05;;;;;;;56.03;30.37;;;6.10;92.70;;;;;;4961043;28;20190;-78
2020/12/23 03:02:30;;;;;;;68.83;30.43;;;6.10;92.80;;;;;;4959777;28;20186;-79
2020/12/23 03:04:56;;;;;;;60.20;29.57;;;6.10;92.80;;;;;;4950947;28;20186;-80
2020/12/23 03:07:22;;;;;;;70.80;31.37;;;6.10;92.80;;;;;;4962912;28;20742;-78
2020/12/23 03:09:47;;;;;;;64.13;30.27;;;6.10;92.70;;;;;;4949870;28;20206;-79
2020/12/23 03:12:13;;;;;;;63.00;29.40;;;6.20;92.80;;;;;;4949199;29;20187;-79
2020/12/23 03:14:39;;;;;;;61.33;28.07;;;6.20;92.90;;;;;;4950615;28;20847;-79
2020/12/23 03:17:05;;;;;;;64.67;28.57;;;6.20;92.80;;;;;;4959697;28;20337;-79
2020/12/23 03:19:30;;;;;;;71.43;30.87;;;6.20;92.80;;;;;;4971712;28;20174;-79
2020/12/23 03:21:56;;;;;;;64.57;29.17;;;6.20;92.80;;;;;;4959636;28;20198;-80
2020/12/23 03:24:22;;;;;;;70.97;29.43;;;6.20;92.70;;;;;;4952352;29;20186;-80
2020/12/23 03:26:47;;;;;;;67.80;28.43;;;6.20;92.70;;;;;;4952598;28;20187;-78
2020/12/23 03:29:13;;;;;;;66.27;31.10;;;6.20;92.70;;;;;;4962198;28;20193;-79
2020/12/23 03:31:40;;;;;;;59.63;28.60;;;6.10;92.80;;;;;;4954516;28;20193;-79
2020/12/23 03:34:06;;;;;;;66.13;30.13;;;6.20;92.90;;;;;;4962722;28;20198;-80
2020/12/23 03:36:32;;;;;;;64.90;30.23;;;6.10;92.90;;;;;;4950848;29;20298;-79
2020/12/23 03:38:58;;;;;;;67.97;31.87;;;6.10;93.00;;;;;;4953486;28;20695;-80
2020/12/23 03:41:23;;;;;;;68.77;30.43;;;6.10;93.10;;;;;;4971098;28;20178;-79
2020/12/23 03:43:49;;;;;;;63.83;29.20;;;6.10;93.20;;;;;;4973306;28;20229;-79
2020/12/23 03:46:15;;;;;;;63.80;28.80;;;6.10;93.10;;;;;;4971943;28;20197;-79
2020/12/23 03:48:40;;;;;;;57.73;28.60;;;6.10;93.10;;;;;;4951492;29;20183;-79
2020/12/23 03:51:06;;;;;;;61.73;28.43;;;6.20;93.00;;;;;;4951499;29;20284;-79
2020/12/23 03:53:32;;;;;;;57.13;26.60;;;6.20;93.00;;;;;;4953071;28;20198;-79
2020/12/23 03:55:57;;;;;;;63.00;26.30;;;6.20;92.80;;;;;;4971332;28;20261;-79
2020/12/23 03:58:23;;;;;;;54.07;26.97;;;6.20;92.80;;;;;;4952279;28;20226;-79
2020/12/23 04:00:49;;;;;;;60.50;25.90;;;6.20;92.70;;;;;;4951616;29;20183;-79
2020/12/23 04:03:33;;;;;;;65.77;28.63;;;6.20;92.80;;;;;;4959662;28;20225;-80
2020/12/23 04:06:01;;;;;;;52.20;26.53;;;6.30;92.80;;;;;;4957886;28;20643;-79
2020/12/23 04:08:26;;;;;;;54.57;26.80;;;6.30;92.90;;;;;;4953272;28;20198;-79
2020/12/23 04:10:52;;;;;;;68.10;28.50;;;6.30;92.90;;;;;;4949943;29;20611;-79
2020/12/23 04:13:18;;;;;;;55.37;27.33;;;6.30;92.80;;;;;;4951719;29;20185;-79
2020/12/23 04:15:43;;;;;;;55.17;27.30;;;6.40;92.70;;;;;;4954221;28;20179;-79
2020/12/23 04:18:10;;;;;;;62.77;29.07;;;6.40;92.70;;;;;;4971626;28;20186;-79
2020/12/23 04:20:36;;;;;;;64.57;28.00;;;6.40;92.70;;;;;;4955311;28;20202;-78
2020/12/23 04:23:02;;;;;;;61.57;27.60;;;6.40;92.60;;;;;;4967612;28;20862;-78
2020/12/23 04:25:28;;;;;;;51.80;25.03;;;6.50;92.60;;;;;;4955084;28;20187;-78
2020/12/23 04:27:53;;;;;;;51.33;25.00;;;6.50;92.40;;;;;;4955142;29;20190;-78
2020/12/23 04:30:19;;;;;;;50.80;24.47;;;6.50;92.30;;;;;;4964805;28;20292;-78
2020/12/23 04:32:45;;;;;;;53.53;25.70;;;6.50;92.20;;;;;;4970573;28;20179;-79
2020/12/23 04:35:10;;;;;;;55.03;23.63;;;6.50;92.20;;;;;;4956199;28;20214;-79
2020/12/23 04:37:36;;;;;;;47.47;23.67;;;6.50;92.20;;;;;;4944861;29;20660;-78
2020/12/23 04:40:05;;;;;;;49.77;24.30;;;6.50;92.10;;;;;;4953519;28;20274;-79
2020/12/23 04:42:32;;;;;;;45.57;23.20;;;6.50;92.10;;;;;;4969855;28;20178;-79
2020/12/23 04:44:58;;;;;;;50.50;24.80;;;6.50;92.20;;;;;;4975799;28;20716;-79
2020/12/23 04:47:25;;;;;;;46.27;24.10;;;6.60;92.20;;;;;;4953832;29;20215;-79
2020/12/23 04:49:55;;;;;;;57.53;25.13;;;6.60;92.20;;;;;;4964310;28;20207;-81
2020/12/23 04:52:35;;;;;;;52.80;22.97;;;6.60;92.00;;;;;;4972691;28;20293;-80
2020/12/23 04:55:04;;;;;;;43.13;22.63;;;6.60;91.80;;;;;;4962245;28;20269;-79
2020/12/23 04:57:30;;;;;;;48.80;23.77;;;6.60;91.80;;;;;;4973621;28;20185;-79
2020/12/23 04:59:56;;;;;;;46.07;22.23;;;6.50;91.90;;;;;;4956448;28;20916;-80
2020/12/23 05:02:22;;;;;;;50.40;22.13;;;6.50;91.90;;;;;;4973888;28;20186;-80
2020/12/23 05:04:48;;;;;;;47.17;23.03;;;6.50;92.00;;;;;;4973891;28;20282;-80
2020/12/23 05:07:19;;;;;;;44.33;23.23;;;6.50;92.00;;;;;;4965867;28;20185;-80
2020/12/23 05:09:47;;;;;;;52.33;25.53;;;6.50;92.00;;;;;;4992999;28;20274;-79
2020/12/23 05:12:13;;;;;;;51.80;24.37;;;6.50;92.10;;;;;;4975079;28;20233;-79
2020/12/23 05:14:40;;;;;;;49.60;23.77;;;6.50;92.10;;;;;;4975011;28;20178;-80
2020/12/23 05:17:06;;;;;;;47.33;22.50;;;6.50;92.00;;;;;;4992573;28;20181;-79
2020/12/23 05:19:32;;;;;;;45.97;22.47;;;6.50;92.10;;;;;;4990933;28;20193;-79
2020/12/23 05:21:58;;;;;;;46.87;22.17;;;6.50;92.00;;;;;;4992816;28;20182;-80
2020/12/23 05:24:25;;;;;;;48.23;21.43;;;6.50;92.10;;;;;;4984109;28;20213;-79
2020/12/23 05:26:57;;;;;;;44.60;22.07;;;6.50;92.10;;;;;;4954604;28;20174;-79
2020/12/23 05:29:24;;;;;;;48.33;21.57;;;6.40;92.20;;;;;;4967053;28;20179;-82
2020/12/23 05:31:50;;;;;;;51.27;22.23;;;6.40;92.20;;;;;;4982945;28;20228;-80
2020/12/23 05:34:15;;;;;;;45.60;21.70;;;6.40;92.20;;;;;;4969313;28;20178;-80
2020/12/23 05:36:41;;;;;;;45.33;22.23;;;6.40;92.30;;;;;;4973472;28;20177;-79
2020/12/23 05:39:08;;;;;;;43.87;21.13;;;6.40;92.20;;;;;;4969844;28;20167;-79
2020/12/23 05:41:38;;;;;;;35.97;18.83;;;6.40;92.20;;;;;;4973104;28;20171;-79
2020/12/23 05:44:15;;;;;;;39.43;20.87;;;6.40;92.30;;;;;;4956597;28;20188;-82
2020/12/23 05:46:40;;;;;;;36.37;18.13;;;6.50;92.10;;;;;;4963444;28;20181;-86
2020/12/23 05:49:09;;;;;;;38.20;19.80;;;6.50;92.20;;;;;;4976436;28;20182;-89
2020/12/23 05:51:38;;;;;;;41.57;20.97;;;6.50;92.20;;;;;;4978484;28;20289;-86
2020/12/23 05:54:05;;;;;;;48.53;18.50;;;6.50;92.10;;;;;;4973757;28;20176;-88
2020/12/23 05:56:36;;;;;;;38.33;19.40;;;6.60;92.10;;;;;;4974738;28;20206;-89
2020/12/23 05:59:02;;;;;;;37.13;19.50;;;6.60;91.90;;;;;;4955599;28;20974;-89
2020/12/23 06:01:37;;;;;;;44.37;19.93;;;6.60;92.00;;;;;;4980565;28;20253;-89
2020/12/23 06:04:07;;;;;;;37.80;20.07;;;6.60;92.00;;;;;;4956935;28;20177;-88
2020/12/23 06:06:34;;;;;;;38.93;19.63;;;6.70;92.10;;;;;;4965939;28;20630;-87
2020/12/23 06:09:05;;;;;;;37.63;20.10;;;6.70;91.80;;;;;;4960444;28;20218;-86
2020/12/23 06:11:32;;;;;;;40.93;20.60;;;6.70;91.80;;;;;;4973282;28;20256;-86
2020/12/23 06:14:04;;;;;;;40.73;19.37;;;6.70;91.80;;;;;;4955123;28;20269;-87
2020/12/23 06:16:35;;;;;;;38.60;18.43;;;6.60;91.80;;;;;;4970573;28;20567;-88
2020/12/23 06:19:05;;;;;;;33.80;18.70;;;6.60;91.90;;;;;;4970892;28;20571;-81
2020/12/23 06:21:32;;;;;;;37.10;19.10;;;6.70;91.80;;;;;;4973128;28;20174;-83
2020/12/23 06:24:02;;;;;;;34.43;19.03;;;6.70;91.70;;;;;;4973326;28;20180;-82
2020/12/23 06:26:30;;;;;;;38.60;20.07;;;6.70;91.60;;;;;;4973594;28;20174;-84
2020/12/23 06:29:01;;;;;;;35.37;18.97;;;6.70;91.80;;;;;;4971198;28;20182;-79
2020/12/23 06:31:48;;;;;;;34.90;19.50;;;6.70;91.70;;;;;;4973174;28;20308;-80
2020/12/23 06:34:22;;;;;;;37.83;18.30;;;6.70;91.60;;;;;;4956118;28;20159;-79
2020/12/23 06:36:50;;;;;;;40.23;19.83;;;6.70;91.60;;;;;;4972200;28;20165;-78
2020/12/23 06:39:18;;;;;;;35.80;18.80;;;6.70;91.70;;;;;;4974481;28;20182;-78
2020/12/23 06:41:49;;;;;;;41.03;18.07;;;6.80;91.70;;;;;;4966110;28;20285;-78
2020/12/23 06:44:15;;;;;;;36.87;19.27;;;6.80;91.70;;;;;;4975425;28;20197;-77
2020/12/23 06:46:58;;;;;;;33.80;17.77;;;6.80;91.80;;;;;;4985336;28;20597;-77
2020/12/23 06:50:06;;;;;;;40.33;18.73;;;6.80;91.60;;;;;;4970984;28;20181;-77
2020/12/23 06:52:34;;;;;;;38.20;18.53;;;6.90;91.70;;;;;;4900354;29;20193;-81
2020/12/23 06:55:03;;;;;;;36.93;18.33;;;6.80;91.70;;;;;;4890726;29;20193;-78
2020/12/23 06:57:37;;;;;;;37.47;20.07;;;6.80;91.90;;;;;;4895234;29;20199;-77
2020/12/23 07:00:32;;;;;;;34.00;16.77;;;6.90;91.80;;;;;;4911418;29;20962;-77
2020/12/23 07:02:59;;;;;;;36.73;19.07;;;6.90;91.90;;;;;;4908290;29;20585;-79
2020/12/23 07:05:28;;;;;;;37.33;18.57;;;6.90;91.90;;;;;;4911573;29;20756;-79
2020/12/23 07:07:55;;;;;;;35.00;18.20;;;7.00;91.90;;;;;;4895432;29;20189;-80
2020/12/23 07:10:24;;;;;;;35.40;18.87;;;7.00;91.90;;;;;;4893799;29;20231;-79
2020/12/23 07:12:56;;;;;;;35.43;17.40;;;7.10;91.90;;;;;;4894450;29;20200;-79
2020/12/23 07:15:24;;;;;;;31.63;16.53;;;7.10;91.80;;;;;;4893962;29;20188;-80
2020/12/23 07:18:16;;;;;;;35.10;18.40;;;7.20;91.80;;;;;;4894140;29;20188;-79
2020/12/23 07:21:03;;;;;;;36.40;17.57;;;7.30;91.60;;;;;;4905183;29;20192;-80
2020/12/23 07:23:33;;;;;;;28.87;17.83;;;7.30;91.60;;;;;;4909015;29;20215;-80
2020/12/23 07:26:05;;;;;;;31.07;17.87;;;7.40;91.20;;;;;;4909337;29;20191;-80
2020/12/23 07:28:37;;;;;;;34.27;19.13;;;7.40;91.00;;;;;;4913140;29;20720;-79
2020/12/23 07:31:04;;;;;;;33.10;17.03;;;7.40;91.20;;;;;;4950317;29;20824;-79
2020/12/23 07:33:32;;;;;;;39.40;20.60;;;7.50;91.50;;;;;;4951388;29;20671;-80
2020/12/23 07:36:02;;;;;;;35.40;18.03;;;7.60;91.60;;;;;;4950247;29;20167;-79
2020/12/23 07:38:29;;;;;;;43.67;19.87;;;7.70;91.70;;;;;;4950948;29;20175;-79
2020/12/23 07:40:55;;;;;;;45.13;20.50;;;7.80;91.50;;;;;;4933888;29;20183;-79
2020/12/23 07:43:22;;;;;;;43.97;21.97;;;7.90;91.30;;;;;;4933730;29;20206;-79
2020/12/23 07:45:48;;;;;;;50.33;22.23;;;7.90;91.10;;;;;;4933001;29;20183;-79
2020/12/23 07:48:16;;;;;;;43.70;21.77;;;8.00;90.80;;;;;;4950923;29;20185;-79
2020/12/23 07:50:46;;;;;;;42.93;19.87;;;8.10;91.00;;;;;;4962049;28;20229;-79
2020/12/23 07:53:23;;;;;;;36.57;20.80;;;8.20;90.70;;;;;;4961592;28;20181;-80
2020/12/23 07:55:58;;;;;;;40.27;21.63;;;8.20;90.50;;;;;;4963134;28;20169;-80
2020/12/23 07:58:24;;;;;;;43.17;20.97;;;8.30;90.70;;;;;;4968223;28;20217;-80
2020/12/23 08:00:50;;;;;;;45.80;19.97;;;8.40;90.90;;;;;;4968362;28;20282;-82
2020/12/23 08:03:30;;;;;;;44.27;21.77;;;8.50;90.90;;;;;;4992183;28;20752;-80
2020/12/23 08:06:10;;;;;;;38.97;21.10;;;8.70;90.40;;;;;;4991980;28;20845;-80
2020/12/23 08:08:40;;;;;;;39.17;20.97;;;8.80;90.30;;;;;;4970412;28;20185;-80
2020/12/23 08:11:13;;;;;;;42.67;20.77;;;8.90;90.10;;;;;;4973721;28;20198;-80
2020/12/23 08:13:39;;;;;;;35.10;19.67;;;9.00;90.00;;;;;;4956244;28;20182;-81
2020/12/23 08:16:10;;;;;;;43.77;21.43;;;9.10;89.10;;;;;;4973720;28;20261;-79
2020/12/23 08:18:40;;;;;;;40.07;22.27;;;9.20;88.70;;;;;;4973522;28;20198;-80
2020/12/23 08:21:11;;;;;;;42.10;22.13;;;9.20;87.90;;;;;;4972648;28;20179;-81
2020/12/23 08:23:37;;;;;;;41.03;22.08;;;9.20;88.10;;;;;;4955853;28;20183;-80
2020/12/23 08:26:04;;;;;;;50.90;24.50;;;9.30;88.40;;;;;;4956339;28;20178;-80
2020/12/23 08:28:34;;;;;;;46.63;24.33;;;9.30;88.70;;;;;;4971569;28;20937;-80
2020/12/23 08:31:02;;;;;;;42.50;23.47;;;9.40;88.80;;;;;;4955526;28;20596;-80
2020/12/23 08:33:29;;;;;;;43.80;23.40;;;9.40;88.80;;;;;;4972575;28;20182;-80
2020/12/23 08:36:02;;;;;;;41.92;24.35;;;9.50;88.70;;;;;;4972010;28;20174;-80
2020/12/23 08:38:28;;;;;;;35.63;21.15;;;9.50;88.90;;;;;;4972814;28;20174;-80
2020/12/23 08:40:57;;;;;;;44.17;21.83;;;9.70;88.40;;;;;;4974173;28;20189;-80
2020/12/23 08:43:28;;;;;;;26.70;15.95;;;9.80;88.50;;;;;;4986118;28;20182;-80
2020/12/23 08:45:59;;;;;;;32.25;17.58;;;10.00;88.00;;;;;;4951555;28;20190;-79
2020/12/23 08:48:29;;;;;;;31.88;18.15;;;10.40;88.70;;;;;;4957342;28;20655;-79
2020/12/23 08:50:57;;;;;;;33.08;16.67;;;10.90;88.50;;;;;;4972642;28;20226;-79
2020/12/23 08:53:38;;;;;;;28.73;14.90;;;11.50;86.80;;;;;;4966199;28;20826;-80
2020/12/23 08:56:30;;;;;;;18.85;13.32;;;12.10;84.20;;;;;;4972317;28;20182;-79
2020/12/23 08:59:15;;;;;;;17.67;11.38;;;12.40;82.90;;;;;;4956174;28;20198;-79
2020/12/23 09:01:43;;;;;;;12.98;7.63;;;12.50;83.10;;;;;;4954226;28;20187;-80
2020/12/23 09:08:11;;;;;;;6.72;5.88;;;12.60;81.70;;;;;;5058892;27;1637409;-80
2020/12/23 09:10:37;;;;;;;6.70;5.68;;;12.50;81.50;;;;;;5092446;28;20185;-79
2020/12/23 09:13:13;;;;;;;4.85;4.38;;;12.50;81.50;;;;;;5090141;28;20189;-79
2020/12/23 09:15:40;;;;;;;5.07;4.28;;;12.50;80.00;;;;;;5083920;28;20718;-80
2020/12/23 09:18:09;;;;;;;4.63;4.20;;;12.40;79.70;;;;;;5085402;28;20174;-80
2020/12/23 09:20:37;;;;;;;5.53;3.90;;;12.30;80.20;;;;;;5081199;28;20189;-79
2020/12/23 09:23:07;;;;;;;4.65;4.15;;;12.30;79.50;;;;;;5098734;28;20181;-80
2020/12/23 09:25:37;;;;;;;4.88;3.97;;;12.30;80.10;;;;;;5084561;28;20172;-79
2020/12/23 09:28:14;;;;;;;4.03;3.83;;;12.30;79.50;;;;;;5086033;28;20238;-79
2020/12/23 09:30:53;;;;;;;4.13;3.67;;;12.20;79.50;;;;;;5084831;28;20598;-79
2020/12/23 09:33:21;;;;;;;4.32;3.78;;;12.20;80.30;;;;;;5074348;28;20198;-79
2020/12/23 09:35:49;;;;;;;3.55;3.25;;;12.10;79.80;;;;;;5085564;28;20197;-79
2020/12/23 09:38:27;;;;;;;3.53;3.33;;;12.10;79.70;;;;;;5067966;28;20185;-79
2020/12/23 09:40:58;;;;;;;3.95;3.65;;;12.00;80.10;;;;;;5047400;28;20719;-80
2020/12/23 09:43:26;;;;;;;3.55;3.08;;;12.10;79.90;;;;;;5048088;28;20262;-80
2020/12/23 09:45:53;;;;;;;3.58;3.38;;;12.00;79.80;;;;;;5047623;28;20714;-79
2020/12/23 09:48:21;;;;;;;3.35;3.03;;;12.00;79.90;;;;;;5068449;28;20252;-79
2020/12/23 09:50:47;;;;;;;3.65;3.20;;;11.90;80.10;;;;;;5088719;28;20170;-79
2020/12/23 09:53:13;;;;;;;3.28;3.00;;;11.80;80.00;;;;;;5086187;28;20179;-79
2020/12/23 09:55:43;;;;;;;2.97;2.88;;;11.70;80.60;;;;;;5084647;28;20605;-79
2020/12/23 09:58:10;;;;;;;4.07;3.50;;;11.60;81.00;;;;;;5089617;28;20254;-78
2020/12/23 10:00:36;;;;;;;2.55;2.45;;;11.60;81.10;;;;;;5085049;28;20198;-79
2020/12/23 10:03:02;;;;;;;2.25;2.15;;;11.60;80.80;;;;;;5085047;28;20186;-79
2020/12/23 10:05:29;;;;;;;3.63;2.72;;;11.60;80.90;;;;;;5085179;28;20171;-78
2020/12/23 10:07:54;;;;;;;3.40;3.20;;;11.60;81.00;;;;;;5079887;28;20287;-79
2020/12/23 10:10:20;;;;;;;6.20;3.20;;;11.60;81.10;;;;;;5071856;28;20176;-79
2020/12/23 10:12:46;;;;;;;3.00;2.80;;;11.70;80.90;;;;;;5046958;28;20209;-78
2020/12/23 10:15:12;;;;;;;2.92;2.72;;;11.80;80.60;;;;;;5076481;28;20206;-78
2020/12/23 10:17:38;;;;;;;2.60;2.42;;;11.80;80.40;;;;;;5080199;28;20282;-78
2020/12/23 10:20:06;;;;;;;3.03;2.83;;;12.00;80.30;;;;;;5070272;28;20186;-80
2020/12/23 10:22:32;;;;;;;2.88;2.78;;;12.00;79.90;;;;;;5069752;28;20714;-79
2020/12/23 10:24:58;;;;;;;5.95;3.75;;;12.10;79.90;;;;;;5070039;28;20171;-80
2020/12/23 10:27:23;;;;;;;2.88;2.67;;;12.10;79.60;;;;;;5052480;28;20289;-78
2020/12/23 10:29:49;;;;;;;3.85;3.03;;;12.20;79.40;;;;;;5069838;28;20309;-79
2020/12/23 10:32:15;;;;;;;3.80;2.75;;;12.20;79.30;;;;;;5070880;28;20175;-79
2020/12/23 10:34:41;;;;;;;3.22;3.03;;;12.20;79.40;;;;;;5071127;28;20167;-78
2020/12/23 10:37:07;;;;;;;2.60;2.47;;;12.30;79.60;;;;;;5070901;28;20179;-78
2020/12/23 10:39:33;;;;;;;3.08;2.85;;;12.40;79.00;;;;;;5067961;28;20255;-79
2020/12/23 10:41:58;;;;;;;3.30;2.78;;;12.50;78.80;;;;;;5069436;28;20175;-79
2020/12/23 10:44:24;;;;;;;2.47;2.28;;;12.60;78.70;;;;;;5068794;28;20263;-79
2020/12/23 10:46:58;;;;;;;2.92;2.72;;;13.10;78.30;;;;;;5055545;28;20214;-80
2020/12/23 10:49:24;;;;;;;3.53;2.45;;;13.70;77.50;;;;;;5063468;28;20242;-79
2020/12/23 10:51:58;;;;;;;3.10;2.80;;;14.30;75.00;;;;;;5070703;28;20183;-79
2020/12/23 10:54:28;;;;;;;3.55;2.10;;;14.50;74.60;;;;;;5062743;28;20210;-80
2020/12/23 10:56:55;;;;;;;2.15;2.05;;;14.80;73.50;;;;;;5056236;28;20183;-80
2020/12/23 10:59:20;;;;;;;1.98;1.88;;;15.00;73.70;;;;;;5055312;28;20179;-79
2020/12/23 11:01:52;;;;;;;2.53;1.83;;;15.30;72.90;;;;;;5068901;28;20175;-80
2020/12/23 11:04:18;;;;;;;2.17;1.73;;;15.40;72.00;;;;;;5069890;28;20169;-80
2020/12/23 11:06:46;;;;;;;1.83;1.75;;;15.20;71.50;;;;;;5065051;28;20679;-80
2020/12/23 11:09:12;;;;;;;1.80;1.67;;;14.90;72.00;;;;;;5052988;28;20566;-80
2020/12/23 11:11:38;;;;;;;1.70;1.70;;;14.60;72.70;;;;;;5069486;28;20635;-79
2020/12/23 11:14:03;;;;;;;2.10;1.90;;;14.50;73.20;;;;;;5059665;28;20183;-78
2020/12/23 11:16:30;;;;;;;3.63;1.95;;;14.20;73.50;;;;;;5050010;28;20606;-79
2020/12/23 11:18:55;;;;;;;2.08;1.98;;;14.00;74.40;;;;;;5065028;28;20713;-79
2020/12/23 11:21:21;;;;;;;1.70;1.60;;;13.90;74.90;;;;;;5071693;28;20186;-79
2020/12/23 11:23:47;;;;;;;2.25;2.03;;;13.80;75.60;;;;;;5060739;28;20614;-79
2020/12/23 11:26:20;;;;;;;2.40;2.30;;;13.70;75.90;;;;;;5044710;28;20289;-80
2020/12/23 11:28:47;;;;;;;2.35;2.20;;;13.80;75.90;;;;;;5059505;28;20551;-79
2020/12/23 11:31:13;;;;;;;2.40;2.30;;;13.70;75.50;;;;;;5047965;28;20178;-79
2020/12/23 11:33:39;;;;;;;3.33;2.65;;;13.50;76.10;;;;;;5056015;28;20171;-79
2020/12/23 11:36:05;;;;;;;5.00;2.13;;;13.70;76.30;;;;;;5070200;28;20199;-78
2020/12/23 11:38:31;;;;;;;2.15;2.00;;;13.90;75.90;;;;;;5067671;28;20275;-79
2020/12/23 11:40:57;;;;;;;1.77;1.70;;;14.30;75.50;;;;;;5059311;28;20243;-79
2020/12/23 11:43:23;;;;;;;1.75;1.25;;;14.80;73.90;;;;;;5056006;28;20270;-79
2020/12/23 11:45:49;;;;;;;2.08;1.67;;;15.30;72.50;;;;;;5032067;28;20187;-79
2020/12/23 11:48:15;;;;;;;3.25;2.30;;;15.70;72.30;;;;;;5060511;28;20266;-79
2020/12/23 11:50:42;;;;;;;2.72;2.28;;;16.30;72.50;;;;;;5049279;28;20266;-78
2020/12/23 11:53:09;;;;;;;2.28;2.17;;;17.00;70.80;;;;;;5069665;28;20242;-79
2020/12/23 11:55:35;;;;;;;2.15;2.05;;;17.50;68.20;;;;;;5066606;28;20183;-79
2020/12/23 11:58:00;;;;;;;1.80;1.70;;;17.80;67.50;;;;;;5049194;28;20178;-79
2020/12/23 12:00:26;;;;;;;1.80;1.70;;;17.90;67.20;;;;;;5051301;28;20190;-79
2020/12/23 12:02:52;;;;;;;1.88;1.55;;;17.80;66.70;;;;;;5069202;28;20175;-79
2020/12/23 12:05:18;;;;;;;2.17;2.00;;;17.90;68.20;;;;;;5068508;28;20190;-79
2020/12/23 12:07:43;;;;;;;2.00;1.90;;;18.10;67.20;;;;;;5067610;28;20206;-79
2020/12/23 12:10:10;;;;;;;2.50;2.03;;;18.50;65.80;;;;;;5060343;28;20191;-79
2020/12/23 12:12:35;;;;;;;3.38;2.10;;;18.50;65.20;;;;;;5049891;28;20163;-79
2020/12/23 12:15:02;;;;;;;2.05;1.95;;;18.50;66.20;;;;;;5053575;28;20225;-79
2020/12/23 12:17:28;;;;;;;1.80;1.77;;;18.70;66.40;;;;;;5067652;28;20225;-78
2020/12/23 12:19:54;;;;;;;1.30;1.30;;;19.00;64.90;;;;;;5079675;28;20209;-80
2020/12/23 12:22:20;;;;;;;1.63;1.63;;;19.20;64.70;;;;;;5088015;28;20186;-79
2020/12/23 12:24:46;;;;;;;1.60;1.50;;;19.20;64.50;;;;;;5088599;28;20178;-78
2020/12/23 12:27:12;;;;;;;1.90;1.50;;;19.20;65.00;;;;;;5071055;28;20634;-78
2020/12/23 12:29:38;;;;;;;1.25;1.25;;;19.20;63.70;;;;;;5057478;28;20251;-78
2020/12/23 12:32:04;;;;;;;1.55;1.50;;;18.90;64.30;;;;;;5047846;28;20190;-78
2020/12/23 12:34:30;;;;;;;1.50;1.40;;;18.70;64.30;;;;;;5047549;28;20186;-78
2020/12/23 12:36:56;;;;;;;1.05;1.05;;;18.60;64.40;;;;;;5052473;28;20231;-77
2020/12/23 12:39:22;;;;;;;1.45;1.23;;;18.40;65.50;;;;;;5048786;28;20179;-80
2020/12/23 12:41:48;;;;;;;0.73;0.73;;;18.10;64.70;;;;;;5049257;28;20660;-89
2020/12/23 12:44:13;;;;;;;0.82;0.82;;;17.80;65.50;;;;;;5031944;28;20270;-83
2020/12/23 12:46:39;;;;;;;1.05;0.95;;;17.60;66.30;;;;;;5032025;28;20199;-80
2020/12/23 12:49:06;;;;;;;1.00;1.00;;;17.50;67.30;;;;;;5032223;28;20183;-81